createdAt,value
2019-03-04T04:01:34.465Z,8.10
2019-03-04T04:04:03.038Z,8.00
2019-03-04T04:06:31.604Z,8.00
2019-03-04T04:09:00.194Z,7.90
2019-03-04T04:11:29.511Z,7.90
2019-03-04T04:13:58.107Z,7.90
2019-03-04T04:16:26.697Z,7.80
2019-03-04T04:18:55.310Z,7.80
2019-03-04T04:21:23.899Z,7.70
2019-03-04T04:23:52.467Z,7.70
2019-03-04T04:26:21.424Z,7.70
2019-03-04T04:28:54.545Z,7.70
2019-03-04T04:31:23.113Z,7.70
2019-03-04T04:33:51.700Z,7.70
2019-03-04T04:36:20.281Z,7.60
2019-03-04T04:38:48.877Z,7.60
2019-03-04T04:41:17.782Z,7.60
2019-03-04T04:43:46.350Z,7.70
2019-03-04T04:46:14.937Z,7.70
2019-03-04T04:48:43.505Z,7.70
2019-03-04T04:51:12.105Z,7.70
2019-03-04T04:53:40.670Z,7.70
2019-03-04T04:56:09.590Z,7.70
2019-03-04T04:58:38.247Z,7.70
2019-03-04T05:01:06.833Z,7.70
2019-03-04T05:03:35.423Z,7.60
2019-03-04T05:06:03.981Z,7.60
2019-03-04T05:08:32.554Z,7.60
2019-03-04T05:11:01.173Z,7.60
2019-03-04T05:13:29.782Z,7.50
2019-03-04T05:15:58.779Z,7.50
2019-03-04T05:18:27.349Z,7.50
2019-03-04T05:20:55.918Z,7.50
2019-03-04T05:23:24.502Z,7.40
2019-03-04T05:25:53.078Z,7.40
2019-03-04T05:28:21.702Z,7.40
2019-03-04T05:30:50.336Z,7.30
2019-03-04T05:33:18.922Z,7.20
2019-03-04T05:35:47.507Z,7.10
2019-03-04T05:38:16.069Z,7.10
2019-03-04T05:40:44.676Z,7.00
2019-03-04T05:43:13.525Z,6.90
2019-03-04T05:45:42.177Z,6.80
2019-03-04T05:48:10.758Z,6.80
2019-03-04T05:50:39.334Z,6.70
2019-03-04T05:53:07.934Z,6.60
2019-03-04T05:55:36.505Z,6.40
2019-03-04T05:58:05.145Z,6.40
2019-03-04T06:00:38.481Z,6.50
2019-03-04T06:03:07.583Z,6.30
2019-03-04T06:05:36.169Z,6.30
2019-03-04T06:08:06.085Z,6.30
2019-03-04T06:10:34.730Z,6.40
2019-03-04T06:13:03.377Z,6.40
2019-03-04T06:15:31.973Z,6.60
2019-03-04T06:18:00.572Z,6.60
2019-03-04T06:20:29.134Z,6.70
2019-03-04T06:22:58.021Z,6.70
2019-03-04T06:25:27.511Z,6.80
2019-03-04T06:27:56.169Z,6.80
2019-03-04T06:30:25.369Z,6.90
2019-03-04T06:32:53.954Z,6.90
2019-03-04T06:35:22.593Z,7.00
2019-03-04T06:37:51.160Z,7.10
2019-03-04T06:40:19.778Z,7.10
2019-03-04T06:42:48.394Z,7.10
2019-03-04T06:45:16.969Z,7.10
2019-03-04T06:47:45.558Z,7.20
2019-03-04T06:50:57.412Z,7.20
2019-03-04T06:53:50.702Z,7.30
2019-03-04T06:56:43.219Z,7.50
2019-03-04T06:59:47.474Z,7.80
2019-03-04T07:02:16.194Z,8.20
2019-03-04T07:05:07.696Z,8.90
2019-03-04T07:07:36.270Z,9.60
2019-03-04T07:10:05.120Z,10.20
2019-03-04T07:12:33.772Z,10.40
2019-03-04T07:15:02.398Z,10.50
2019-03-04T07:17:30.990Z,10.80
2019-03-04T07:20:05.934Z,11.00
2019-03-04T07:22:34.510Z,11.10
2019-03-04T07:25:03.089Z,11.30
2019-03-04T07:27:31.701Z,11.30
2019-03-04T07:30:00.682Z,11.20
2019-03-04T07:32:29.339Z,11.10
2019-03-04T07:34:57.906Z,11.30
2019-03-04T07:37:26.481Z,11.40
2019-03-04T07:39:55.086Z,11.50
2019-03-04T07:42:23.757Z,11.50
2019-03-04T07:44:52.371Z,11.60
2019-03-04T07:47:20.942Z,11.80
2019-03-04T07:49:50.152Z,12.10
2019-03-04T07:52:18.736Z,12.60
2019-03-04T07:54:47.319Z,13.00
2019-03-04T07:57:15.909Z,13.50
2019-03-04T07:59:44.483Z,13.80
2019-03-04T08:02:13.061Z,14.00
2019-03-04T08:04:41.749Z,15.40
2019-03-04T08:07:38.798Z,17.70
2019-03-04T08:10:52.277Z,19.20
2019-03-04T08:13:27.589Z,20.20
2019-03-04T08:15:57.520Z,21.60
2019-03-04T08:18:26.114Z,22.70
2019-03-04T08:20:54.826Z,23.30
2019-03-04T08:23:23.495Z,23.80
2019-03-04T08:25:52.107Z,24.00
2019-03-04T08:28:21.290Z,24.50
2019-03-04T08:30:49.879Z,26.10
2019-03-04T08:33:18.482Z,25.90
2019-03-04T08:35:47.054Z,25.50
2019-03-04T08:38:15.738Z,25.80
2019-03-04T08:40:44.348Z,26.40
2019-03-04T08:43:13.013Z,27.40
2019-03-04T08:45:41.593Z,27.20
2019-03-04T08:48:10.268Z,26.30
2019-03-04T08:50:38.856Z,24.10
2019-03-04T08:53:07.653Z,23.20
2019-03-04T08:55:36.330Z,22.70
2019-03-04T08:58:05.067Z,21.60
2019-03-04T09:00:33.675Z,21.50
2019-03-04T09:03:02.274Z,21.80
2019-03-04T09:05:30.883Z,22.20
2019-03-04T09:07:59.546Z,22.00
2019-03-04T09:10:29.334Z,21.30
2019-03-04T09:12:57.906Z,20.40
2019-03-04T09:15:26.488Z,19.60
2019-03-04T09:17:55.409Z,18.70
2019-03-04T09:20:24.310Z,17.80
2019-03-04T09:22:54.193Z,17.20
2019-03-04T09:25:34.413Z,16.60
2019-03-04T09:28:03.014Z,16.40
2019-03-04T09:30:31.589Z,16.20
2019-03-04T09:33:00.170Z,16.00
2019-03-04T09:35:28.766Z,15.80
2019-03-04T09:37:57.337Z,15.60
2019-03-04T09:40:27.441Z,15.50
2019-03-04T09:42:56.030Z,15.40
2019-03-04T09:45:24.603Z,15.40
2019-03-04T09:47:53.290Z,15.10
2019-03-04T09:50:21.870Z,14.90
2019-03-04T09:52:50.478Z,14.70
2019-03-04T09:55:19.166Z,14.40
2019-03-04T09:57:48.106Z,14.20
2019-03-04T10:00:41.941Z,14.00
2019-03-04T10:03:41.634Z,13.90
2019-03-04T10:06:47.592Z,13.90
2019-03-04T10:09:45.570Z,13.90
2019-03-04T10:12:39.714Z,13.90
2019-03-04T10:15:21.846Z,13.80
2019-03-04T10:18:34.592Z,13.80
2019-03-04T10:21:18.514Z,13.80
2019-03-04T10:24:08.469Z,13.80
2019-03-04T10:27:07.281Z,13.80
2019-03-04T10:30:29.669Z,13.70
2019-03-04T10:33:41.657Z,13.70
2019-03-04T10:36:38.672Z,13.60
2019-03-04T10:39:24.685Z,13.60
2019-03-04T10:42:42.990Z,13.60
2019-03-04T10:45:43.365Z,13.70
2019-03-04T10:48:11.981Z,13.60
2019-03-04T10:50:40.557Z,13.70
2019-03-04T10:53:09.129Z,13.70
2019-03-04T10:55:41.895Z,13.90
2019-03-04T10:58:08.062Z,13.80
2019-03-04T11:00:36.666Z,13.80
2019-03-04T11:03:05.239Z,13.90
2019-03-04T11:05:33.825Z,14.00
2019-03-04T11:08:02.414Z,13.80
2019-03-04T11:10:30.982Z,13.60
2019-03-04T11:12:59.597Z,13.40
2019-03-04T11:15:28.201Z,13.30
2019-03-04T11:17:56.780Z,13.20
2019-03-04T11:20:25.381Z,13.00
2019-03-04T11:22:54.148Z,13.00
2019-03-04T11:25:22.746Z,13.10
2019-03-04T11:27:51.313Z,13.00
2019-03-04T11:30:21.530Z,12.90
2019-03-04T11:32:50.301Z,12.70
2019-03-04T11:35:18.893Z,12.60
2019-03-04T11:37:47.517Z,12.40
2019-03-04T11:40:28.064Z,12.40
2019-03-04T11:42:56.730Z,12.50
2019-03-04T11:45:25.312Z,12.40
2019-03-04T11:47:53.877Z,12.50
2019-03-04T11:50:22.476Z,12.40
2019-03-04T11:52:51.056Z,12.30
2019-03-04T11:55:20.187Z,12.30
2019-03-04T11:57:48.818Z,12.20
2019-03-04T12:00:32.657Z,12.20
2019-03-04T12:03:01.758Z,12.20
2019-03-04T12:05:30.333Z,12.10
2019-03-04T12:07:59.014Z,12.10
2019-03-04T12:10:27.673Z,12.00
2019-03-04T12:12:56.273Z,12.00
2019-03-04T12:15:24.946Z,11.90
2019-03-04T12:17:53.845Z,11.90
2019-03-04T12:20:22.437Z,11.80
2019-03-04T12:22:51.051Z,11.80
2019-03-04T12:25:19.653Z,11.70
2019-03-04T12:27:48.230Z,11.60
2019-03-04T12:30:17.987Z,11.60
2019-03-04T12:32:46.793Z,11.50
2019-03-04T12:35:15.710Z,11.40
2019-03-04T12:37:44.681Z,11.40
2019-03-04T12:40:14.105Z,11.40
2019-03-04T12:42:42.690Z,11.40
2019-03-04T12:45:13.340Z,11.30
2019-03-04T12:47:42.149Z,11.20
2019-03-04T12:50:16.244Z,11.20
2019-03-04T12:52:44.821Z,11.20
2019-03-04T12:55:13.386Z,11.20
2019-03-04T12:57:42.064Z,11.10
2019-03-04T13:00:17.006Z,11.00
2019-03-04T13:02:45.674Z,11.00
2019-03-04T13:05:14.341Z,11.00
2019-03-04T13:07:42.910Z,10.90
2019-03-04T13:10:11.793Z,10.90
2019-03-04T13:12:40.642Z,10.90
2019-03-04T13:15:13.869Z,10.80
2019-03-04T13:17:42.461Z,10.80
2019-03-04T13:20:12.089Z,10.80
2019-03-04T13:22:40.703Z,10.70
2019-03-04T13:25:09.447Z,10.70
2019-03-04T13:27:38.096Z,10.70
2019-03-04T13:30:08.499Z,10.60
2019-03-04T13:32:37.129Z,10.60
2019-03-04T13:35:07.334Z,10.50
2019-03-04T13:37:37.920Z,10.50
2019-03-04T13:40:07.357Z,10.50
2019-03-04T13:42:35.933Z,10.40
2019-03-04T13:45:05.729Z,10.30
2019-03-04T13:47:34.323Z,10.30
2019-03-04T13:50:02.910Z,10.30
2019-03-04T13:52:31.529Z,10.20
2019-03-04T13:55:00.295Z,10.20
2019-03-04T13:57:28.845Z,10.20
2019-03-04T13:59:57.726Z,10.10
2019-03-04T14:02:26.451Z,10.10
2019-03-04T14:04:55.111Z,10.10
2019-03-04T14:07:23.950Z,10.20
2019-03-04T14:09:52.526Z,10.10
2019-03-04T14:12:21.118Z,10.10
2019-03-04T14:14:49.699Z,10.10
2019-03-04T14:17:18.294Z,10.10
2019-03-04T14:19:48.863Z,10.10
2019-03-04T14:22:17.195Z,10.10
2019-03-04T14:24:45.922Z,10.10
2019-03-04T14:27:14.497Z,10.10
2019-03-04T14:29:43.100Z,10.10
2019-03-04T14:32:11.737Z,10.10
2019-03-04T14:34:40.602Z,10.00
2019-03-04T14:37:09.189Z,10.00
2019-03-04T14:39:37.765Z,10.00
2019-03-04T14:42:06.392Z,10.00
2019-03-04T14:44:35.076Z,10.00
2019-03-04T14:47:03.655Z,10.00
2019-03-04T14:49:32.341Z,10.00
2019-03-04T14:52:00.918Z,10.00
2019-03-04T14:54:29.634Z,10.00
2019-03-04T14:56:58.221Z,9.90
2019-03-04T14:59:27.183Z,9.90
2019-03-04T15:01:55.890Z,9.90
2019-03-04T15:04:24.521Z,9.90
2019-03-04T15:06:53.241Z,9.90
2019-03-04T15:09:21.814Z,9.80
2019-03-04T15:11:50.400Z,9.80
2019-03-04T15:14:19.466Z,9.70
2019-03-04T15:16:48.037Z,9.80
2019-03-04T15:19:16.633Z,9.80
2019-03-04T15:21:45.725Z,9.80
2019-03-04T15:24:14.293Z,9.70
2019-03-04T15:26:44.282Z,9.70
2019-03-04T15:29:13.057Z,9.60
2019-03-04T15:31:41.754Z,9.60
2019-03-04T15:34:10.825Z,9.60
2019-03-04T15:36:39.724Z,9.60
2019-03-04T15:39:23.033Z,9.60
2019-03-04T15:41:46.160Z,9.50
2019-03-04T15:44:14.792Z,9.60
2019-03-04T15:46:43.622Z,9.70
2019-03-04T15:49:12.370Z,9.90
2019-03-04T15:51:41.097Z,10.10
2019-03-04T15:54:09.714Z,10.20
2019-03-04T15:56:38.605Z,10.20
2019-03-04T15:59:07.290Z,10.30
2019-03-04T16:01:35.894Z,10.20
2019-03-04T16:04:04.480Z,10.30
2019-03-04T16:06:33.169Z,10.30
2019-03-04T16:09:01.814Z,10.40
2019-03-04T16:11:30.546Z,10.40
2019-03-04T16:13:59.214Z,10.40
2019-03-04T16:16:27.791Z,10.30
2019-03-04T16:18:56.389Z,10.30
2019-03-04T16:21:24.970Z,10.10
2019-03-04T16:23:53.542Z,10.10
2019-03-04T16:26:22.230Z,10.10
2019-03-04T16:28:50.900Z,10.00
2019-03-04T16:31:19.783Z,10.00
2019-03-04T16:33:48.381Z,10.00
2019-03-04T16:36:19.390Z,10.00
2019-03-04T16:38:47.982Z,9.90
2019-03-04T16:41:16.585Z,9.90
2019-03-04T16:43:47.054Z,9.90
2019-03-04T16:46:15.717Z,9.80
2019-03-04T16:48:44.609Z,9.80
2019-03-04T16:51:13.349Z,9.80
2019-03-04T16:53:41.933Z,9.70
2019-03-04T16:56:10.530Z,9.60
2019-03-04T16:58:39.097Z,9.50
2019-03-04T17:01:07.718Z,9.50
2019-03-04T17:03:36.381Z,9.50
2019-03-04T17:06:05.062Z,9.50
2019-03-04T17:08:33.665Z,9.40
2019-03-04T17:11:02.241Z,9.50
2019-03-04T17:13:31.667Z,9.40
2019-03-04T17:16:00.261Z,9.50
2019-03-04T17:18:29.285Z,9.50
2019-03-04T17:20:57.958Z,9.60
2019-03-04T17:23:26.641Z,9.60
2019-03-04T17:25:55.249Z,9.60
2019-03-04T17:28:23.874Z,9.60
2019-03-04T17:30:52.621Z,9.70
2019-03-04T17:33:21.230Z,9.70
2019-03-04T17:35:49.793Z,9.80
2019-03-04T17:38:18.409Z,9.70
2019-03-04T17:40:47.040Z,9.70
2019-03-04T17:43:15.608Z,9.70
2019-03-04T17:45:44.260Z,9.60
2019-03-04T17:48:12.881Z,9.70
2019-03-04T17:50:41.529Z,9.70
2019-03-04T17:53:10.225Z,9.70
2019-03-04T17:55:38.925Z,9.80
2019-03-04T17:58:07.557Z,9.80
2019-03-04T18:00:37.973Z,9.80
2019-03-04T18:03:06.550Z,9.80
2019-03-04T18:05:35.106Z,9.60
2019-03-04T18:08:03.715Z,9.30
2019-03-04T18:10:32.310Z,8.80
2019-03-04T18:13:01.074Z,8.60
2019-03-04T18:15:29.747Z,8.40
2019-03-04T18:17:58.773Z,8.30
2019-03-04T18:20:34.440Z,8.10
2019-03-04T18:22:57.745Z,8.00
2019-03-04T18:25:37.071Z,7.90
2019-03-04T18:28:12.998Z,7.80
2019-03-04T18:31:06.678Z,7.70
2019-03-04T18:33:56.174Z,7.60
2019-03-04T18:36:58.893Z,7.50
2019-03-04T18:40:12.530Z,7.40
2019-03-04T18:42:58.070Z,7.40
2019-03-04T18:46:04.515Z,7.40
2019-03-04T18:48:55.191Z,7.30
2019-03-04T18:51:23.788Z,7.20
2019-03-04T18:53:53.914Z,7.10
2019-03-04T18:56:22.520Z,7.10
2019-03-04T18:58:51.203Z,7.00
2019-03-04T19:01:19.946Z,6.90
2019-03-04T19:03:48.549Z,6.80
2019-03-04T19:06:17.177Z,6.70
2019-03-04T19:08:45.757Z,6.70
2019-03-04T19:11:14.505Z,6.60
2019-03-04T19:13:43.182Z,6.60
2019-03-04T19:16:11.841Z,6.60
2019-03-04T19:18:41.237Z,6.60
2019-03-04T19:21:09.915Z,6.50
2019-03-04T19:23:38.521Z,6.50
2019-03-04T19:26:07.134Z,6.50
2019-03-04T19:28:35.745Z,6.50
2019-03-04T19:31:04.418Z,6.50
2019-03-04T19:33:33.007Z,6.50
2019-03-04T19:36:01.617Z,6.50
2019-03-04T19:38:30.255Z,6.50
2019-03-04T19:40:58.849Z,6.40
2019-03-04T19:43:32.984Z,6.40
2019-03-04T19:45:59.095Z,6.30
2019-03-04T19:48:27.793Z,6.30
2019-03-04T19:50:56.478Z,6.30
2019-03-04T19:53:25.548Z,6.30
2019-03-04T19:55:54.263Z,6.30
2019-03-04T19:58:22.947Z,6.20
2019-03-04T20:00:51.538Z,6.10
2019-03-04T20:03:20.186Z,6.10
2019-03-04T20:05:49.577Z,6.00
2019-03-04T20:08:18.269Z,6.00
2019-03-04T20:10:46.945Z,6.00
2019-03-04T20:13:15.546Z,6.00
2019-03-04T20:15:44.149Z,5.90
2019-03-04T20:18:12.721Z,5.90
2019-03-04T20:20:41.293Z,5.80
2019-03-04T20:23:09.974Z,5.80
2019-03-04T20:25:38.717Z,5.80
2019-03-04T20:28:07.329Z,5.80
2019-03-04T20:30:36.070Z,5.80
2019-03-04T20:33:04.637Z,5.70
2019-03-04T20:35:33.245Z,5.70
2019-03-04T20:38:02.156Z,5.70
2019-03-04T20:40:30.830Z,5.60
2019-03-04T20:42:59.462Z,5.70
2019-03-04T20:45:28.114Z,5.70
2019-03-04T20:47:56.740Z,5.70
2019-03-04T20:50:25.321Z,5.70
2019-03-04T20:52:53.921Z,5.80
2019-03-04T20:55:22.650Z,5.80
2019-03-04T20:57:51.226Z,5.80
2019-03-04T21:00:28.374Z,5.80
2019-03-04T21:02:57.021Z,5.90
2019-03-04T21:05:26.025Z,5.90
2019-03-04T21:07:55.021Z,5.90
2019-03-04T21:10:23.634Z,5.90
2019-03-04T21:12:54.152Z,5.80
2019-03-04T21:15:23.001Z,5.80
2019-03-04T21:17:51.910Z,5.80
2019-03-04T21:20:20.490Z,5.70
2019-03-04T21:22:49.434Z,5.70
2019-03-04T21:25:37.334Z,5.70
2019-03-04T21:28:10.153Z,5.70
2019-03-04T21:31:31.460Z,5.70
2019-03-04T21:34:53.921Z,5.70
2019-03-04T21:37:29.357Z,5.70
2019-03-04T21:39:59.917Z,5.70
2019-03-04T21:42:44.346Z,5.70
2019-03-04T21:46:02.598Z,5.70
2019-03-04T21:48:41.612Z,5.70
2019-03-04T21:51:38.546Z,5.70
2019-03-04T21:54:06.754Z,5.70
2019-03-04T21:57:01.909Z,5.70
2019-03-04T21:59:30.627Z,5.70
2019-03-04T22:02:11.538Z,5.70
2019-03-04T22:04:40.144Z,5.70
2019-03-04T22:07:08.725Z,5.70
2019-03-04T22:09:37.618Z,5.60
2019-03-04T22:12:08.288Z,5.60
2019-03-04T22:14:36.928Z,5.60
2019-03-04T22:17:05.483Z,5.60
2019-03-04T22:19:34.066Z,5.60
2019-03-04T22:22:02.814Z,5.60
2019-03-04T22:24:31.398Z,5.60
2019-03-04T22:26:59.990Z,5.60
2019-03-04T22:29:29.093Z,5.60
2019-03-04T22:31:57.676Z,5.50
2019-03-04T22:34:26.276Z,5.50
2019-03-04T22:36:54.868Z,5.40
2019-03-04T22:39:23.582Z,5.40
2019-03-04T22:41:52.153Z,5.40
2019-03-04T22:44:21.190Z,5.30
2019-03-04T22:46:49.810Z,5.30
2019-03-04T22:49:18.429Z,5.30
2019-03-04T22:51:47.053Z,5.30
2019-03-04T22:54:15.607Z,5.30
2019-03-04T22:56:44.566Z,5.30
2019-03-04T22:59:13.177Z,5.20
